Time,TemperatureF,DewpointF,PressureIn,WindDirection,WindDirectionDegrees,WindSpeedMPH,WindSpeedGustMPH,Humidity,HourlyPrecipIn,Conditions,Clouds,dailyrainin,SoftwareType,DateUTC
2013-04-05 00:05:00,55.4,53.4,30.09,West,275,3.0,8.0,93,0.00,,,0.00,Wunderground v.1.15,2013-04-05 07:05:00,
2013-04-05 00:15:00,55.4,53.4,30.09,SW,224,3.0,6.0,93,0.00,,,0.00,Wunderground v.1.15,2013-04-05 07:15:00,
2013-04-05 00:20:00,55.3,53.3,30.10,WSW,252,3.0,3.0,93,0.00,,,0.00,Wunderground v.1.15,2013-04-05 07:20:00,
2013-04-05 00:30:00,55.3,53.3,30.10,SW,232,3.0,3.0,93,0.00,,,0.00,Wunderground v.1.15,2013-04-05 07:30:00,
2013-04-05 00:40:00,55.2,53.2,30.10,SW,228,3.0,4.0,93,0.00,,,0.00,Wunderground v.1.15,2013-04-05 07:40:00,
2013-04-05 00:50:00,55.1,53.1,30.10,West,262,3.0,5.0,93,0.00,,,0.00,Wunderground v.1.15,2013-04-05 07:50:00,
2013-04-05 01:00:00,54.9,52.0,30.10,SSW,213,4.0,4.0,90,0.00,,,0.00,Wunderground v.1.15,2013-04-05 08:00:00,
2013-04-05 01:05:00,54.8,51.3,30.10,SW,224,3.0,6.0,88,0.00,,,0.00,Wunderground v.1.15,2013-04-05 08:05:00,
2013-04-05 01:15:00,54.9,51.7,30.10,West,268,1.0,6.0,89,0.00,,,0.00,Wunderground v.1.15,2013-04-05 08:15:00,
2013-04-05 01:25:00,55.0,51.8,30.10,WSW,252,2.0,2.0,89,0.00,,,0.00,Wunderground v.1.15,2013-04-05 08:25:00,
2013-04-05 01:35:00,55.0,51.2,30.10,SW,227,2.0,6.0,87,0.00,,,0.00,Wunderground v.1.15,2013-04-05 08:35:00,
2013-04-05 01:45:00,55.2,51.4,30.10,SSW,210,2.0,6.0,87,0.00,,,0.00,Wunderground v.1.15,2013-04-05 08:45:00,
2013-04-05 01:55:00,55.3,52.1,30.10,WSW,240,2.0,6.0,89,0.00,,,0.00,Wunderground v.1.15,2013-04-05 08:55:00,
2013-04-05 02:00:00,55.3,52.4,30.10,West,276,2.0,6.0,90,0.00,,,0.00,Wunderground v.1.15,2013-04-05 09:00:00,
2013-04-05 02:05:00,55.2,52.3,30.10,West,268,2.0,6.0,90,0.00,,,0.00,Wunderground v.1.15,2013-04-05 09:05:00,
2013-04-05 02:10:00,55.2,52.3,30.10,West,269,3.0,6.0,90,0.00,,,0.00,Wunderground v.1.15,2013-04-05 09:10:00,
2013-04-05 02:20:00,55.1,52.5,30.10,West,267,1.0,6.0,91,0.00,,,0.00,Wunderground v.1.15,2013-04-05 09:20:00,
2013-04-05 02:30:00,55.0,52.4,30.10,WNW,288,1.0,1.0,91,0.00,,,0.00,Wunderground v.1.15,2013-04-05 09:30:00,
2013-04-05 02:40:00,54.9,52.3,30.10,WNW,288,0.0,6.0,91,0.00,,,0.00,Wunderground v.1.15,2013-04-05 09:40:00,
2013-04-05 02:50:00,54.8,52.2,30.10,WNW,291,0.0,6.0,91,0.00,,,0.00,Wunderground v.1.15,2013-04-05 09:50:00,
2013-04-05 03:00:00,54.8,52.5,30.09,WNW,291,0.0,6.0,92,0.00,,,0.00,Wunderground v.1.15,2013-04-05 10:00:00,
2013-04-05 03:10:00,54.7,52.4,30.09,SSW,202,0.0,6.0,92,0.00,,,0.00,Wunderground v.1.15,2013-04-05 10:10:00,
2013-04-05 03:20:00,54.6,52.3,30.09,SSW,202,0.0,6.0,92,0.00,,,0.00,Wunderground v.1.15,2013-04-05 10:20:00,
2013-04-05 03:25:00,54.6,52.3,30.09,SSW,202,0.0,6.0,92,0.00,,,0.00,Wunderground v.1.15,2013-04-05 10:25:00,
2013-04-05 03:35:00,54.6,52.3,30.09,SSW,202,0.0,6.0,92,0.00,,,0.00,Wunderground v.1.15,2013-04-05 10:35:00,
2013-04-05 03:45:00,54.6,52.6,30.10,SSW,202,0.0,6.0,93,0.00,,,0.00,Wunderground v.1.15,2013-04-05 10:45:00,
2013-04-05 03:55:00,54.5,52.5,30.10,SSW,202,0.0,6.0,93,0.00,,,0.00,Wunderground v.1.15,2013-04-05 10:55:00,
2013-04-05 04:05:00,54.5,52.5,30.10,SSE,167,0.0,6.0,93,0.00,,,0.00,Wunderground v.1.15,2013-04-05 11:05:00,
2013-04-05 04:10:00,54.5,52.5,30.09,SSE,165,0.0,6.0,93,0.00,,,0.00,Wunderground v.1.15,2013-04-05 11:10:00,
2013-04-05 04:15:00,54.5,52.5,30.09,SSE,164,0.0,6.0,93,0.00,,,0.00,Wunderground v.1.15,2013-04-05 11:15:00,
2013-04-05 04:20:00,54.5,52.5,30.09,SSE,162,0.0,6.0,93,0.00,,,0.00,Wunderground v.1.15,2013-04-05 11:20:00,
2013-04-05 04:30:00,54.4,52.4,30.09,SSE,162,0.0,6.0,93,0.00,,,0.00,Wunderground v.1.15,2013-04-05 11:30:00,
2013-04-05 04:40:00,54.3,52.3,30.10,SSE,162,0.0,6.0,93,0.00,,,0.00,Wunderground v.1.15,2013-04-05 11:40:00,
2013-04-05 04:50:00,54.2,52.2,30.10,SSE,162,0.0,6.0,93,0.00,,,0.00,Wunderground v.1.15,2013-04-05 11:50:00,
2013-04-05 05:00:00,54.1,52.1,30.10,SSE,162,0.0,6.0,93,0.00,,,0.00,Wunderground v.1.15,2013-04-05 12:00:00,
2013-04-05 05:10:00,54.1,52.4,30.10,SSE,162,0.0,6.0,94,0.00,,,0.00,Wunderground v.1.15,2013-04-05 12:10:00,
2013-04-05 05:20:00,54.1,52.4,30.09,ENE,72,0.0,6.0,94,0.00,,,0.00,Wunderground v.1.15,2013-04-05 12:20:00,
2013-04-05 05:25:00,54.0,52.3,30.09,SE,133,0.0,6.0,94,0.00,,,0.00,Wunderground v.1.15,2013-04-05 12:25:00,
2013-04-05 05:35:00,53.8,51.8,30.10,SE,124,0.0,6.0,93,0.00,,,0.00,Wunderground v.1.15,2013-04-05 12:35:00,
2013-04-05 05:45:00,53.7,51.7,30.10,ESE,122,0.0,6.0,93,0.00,,,0.00,Wunderground v.1.15,2013-04-05 12:45:00,
2013-04-05 05:50:00,53.7,51.7,30.10,WSW,246,0.0,6.0,93,0.00,,,0.01,Wunderground v.1.15,2013-04-05 12:50:00,
2013-04-05 06:00:00,53.6,51.9,30.10,WSW,255,3.0,6.0,94,0.17,,,0.04,Wunderground v.1.15,2013-04-05 13:00:00,
2013-04-05 06:10:00,53.5,51.8,30.10,WSW,255,0.0,6.0,94,0.05,,,0.04,Wunderground v.1.15,2013-04-05 13:10:00,
2013-04-05 06:15:00,53.4,51.7,30.10,WSW,255,0.0,6.0,94,0.00,,,0.04,Wunderground v.1.15,2013-04-05 13:15:00,
2013-04-05 06:25:00,53.3,51.6,30.10,WSW,255,0.0,6.0,94,0.00,,,0.04,Wunderground v.1.15,2013-04-05 13:25:00,
2013-04-05 06:35:00,53.3,51.9,30.10,NNW,341,0.0,6.0,95,0.00,,,0.04,Wunderground v.1.15,2013-04-05 13:35:00,
2013-04-05 06:45:00,53.2,51.8,30.10,ESE,117,0.0,6.0,95,0.16,,,0.06,Wunderground v.1.15,2013-04-05 13:45:00,
2013-04-05 06:50:00,53.2,51.8,30.10,ESE,117,0.0,6.0,95,0.13,,,0.08,Wunderground v.1.15,2013-04-05 13:50:00,
2013-04-05 07:00:00,53.2,51.8,30.10,ESE,117,0.0,6.0,95,0.06,,,0.08,Wunderground v.1.15,2013-04-05 14:00:00,
2013-04-05 07:10:00,53.2,51.8,30.10,ESE,117,0.0,6.0,95,0.00,,,0.08,Wunderground v.1.15,2013-04-05 14:10:00,
2013-04-05 07:15:00,53.2,51.8,30.10,ESE,117,0.0,6.0,95,0.00,,,0.08,Wunderground v.1.15,2013-04-05 14:15:00,
2013-04-05 07:25:00,53.3,51.9,30.11,ESE,115,0.0,6.0,95,0.00,,,0.08,Wunderground v.1.15,2013-04-05 14:25:00,
2013-04-05 07:36:00,53.4,52.3,30.11,ESE,107,0.0,6.0,96,0.00,,,0.08,Wunderground v.1.15,2013-04-05 14:36:00,
2013-04-05 07:45:00,53.6,52.5,30.11,East,101,0.0,6.0,96,0.00,,,0.08,Wunderground v.1.15,2013-04-05 14:45:00,
2013-04-05 07:50:00,53.7,52.6,30.11,East,101,0.0,6.0,96,0.00,,,0.08,Wunderground v.1.15,2013-04-05 14:50:00,
2013-04-05 07:55:00,53.9,52.8,30.12,East,101,0.0,6.0,96,0.00,,,0.08,Wunderground v.1.15,2013-04-05 14:55:00,
2013-04-05 08:05:00,53.9,52.8,30.12,SSE,149,0.0,6.0,96,0.00,,,0.08,Wunderground v.1.15,2013-04-05 15:05:00,
2013-04-05 08:15:00,53.7,52.3,30.13,SSE,157,2.0,2.0,95,0.00,,,0.08,Wunderground v.1.15,2013-04-05 15:15:00,
2013-04-05 08:20:00,53.7,52.3,30.13,SSE,157,1.0,1.0,95,0.00,,,0.08,Wunderground v.1.15,2013-04-05 15:20:00,
2013-04-05 08:30:00,53.7,52.6,30.13,WSW,257,1.0,2.0,96,0.00,,,0.08,Wunderground v.1.15,2013-04-05 15:30:00,
2013-04-05 08:40:00,53.9,52.8,30.13,West,259,2.0,2.0,96,0.00,,,0.09,Wunderground v.1.15,2013-04-05 15:40:00,
2013-04-05 08:50:00,54.1,53.0,30.14,SW,219,2.0,3.0,96,0.00,,,0.09,Wunderground v.1.15,2013-04-05 15:50:00,
2013-04-05 09:00:00,54.2,53.1,30.14,SW,229,3.0,5.0,96,0.00,,,0.09,Wunderground v.1.15,2013-04-05 16:00:00,
2013-04-05 09:10:00,54.2,53.1,30.13,South,172,3.0,3.0,96,0.00,,,0.09,Wunderground v.1.15,2013-04-05 16:10:00,
2013-04-05 09:15:00,54.2,53.1,30.13,WSW,238,3.0,3.0,96,0.00,,,0.09,Wunderground v.1.15,2013-04-05 16:15:00,
2013-04-05 09:25:00,54.5,53.4,30.13,SSW,193,2.0,4.0,96,0.00,,,0.09,Wunderground v.1.15,2013-04-05 16:25:00,
2013-04-05 09:35:00,55.0,53.9,30.13,SW,234,1.0,3.0,96,0.00,,,0.09,Wunderground v.1.15,2013-04-05 16:35:00,
2013-04-05 09:45:00,55.6,54.5,30.13,NW,312,1.0,1.0,96,0.00,,,0.09,Wunderground v.1.15,2013-04-05 16:45:00,
2013-04-05 09:50:00,55.7,54.3,30.13,NW,312,0.0,0.0,95,0.00,,,0.09,Wunderground v.1.15,2013-04-05 16:50:00,
2013-04-05 10:00:00,56.2,54.5,30.13,SSW,207,0.0,0.0,94,0.00,,,0.09,Wunderground v.1.15,2013-04-05 17:00:00,
2013-04-05 10:10:00,57.1,55.1,30.12,NW,316,0.0,0.0,93,0.00,,,0.09,Wunderground v.1.15,2013-04-05 17:10:00,
2013-04-05 10:15:00,57.2,53.7,30.12,SSW,213,1.0,5.0,88,0.00,,,0.09,Wunderground v.1.15,2013-04-05 17:15:00,
2013-04-05 10:25:00,57.7,53.5,30.13,SW,236,4.0,6.0,86,0.00,,,0.09,Wunderground v.1.15,2013-04-05 17:25:00,
2013-04-05 10:35:00,58.2,53.7,30.13,SW,226,4.0,5.0,85,0.00,,,0.09,Wunderground v.1.15,2013-04-05 17:35:00,
2013-04-05 10:40:00,58.0,52.5,30.14,SW,221,4.0,7.0,82,0.00,,,0.09,Wunderground v.1.15,2013-04-05 17:40:00,
2013-04-05 10:45:00,57.7,52.9,30.14,WSW,252,5.0,8.0,84,0.00,,,0.09,Wunderground v.1.15,2013-04-05 17:45:00,
2013-04-05 10:55:00,58.1,53.0,30.15,SSW,195,6.0,9.0,83,0.00,,,0.09,Wunderground v.1.15,2013-04-05 17:55:00,
2013-04-05 11:05:00,58.1,53.0,30.14,WSW,255,5.0,6.0,83,0.00,,,0.09,Wunderground v.1.15,2013-04-05 18:05:00,
2013-04-05 11:10:00,58.2,53.4,30.14,SW,236,4.0,4.0,84,0.00,,,0.09,Wunderground v.1.15,2013-04-05 18:10:00,
2013-04-05 11:15:00,58.1,52.3,30.15,SSW,202,5.0,6.0,81,0.00,,,0.09,Wunderground v.1.15,2013-04-05 18:15:00,
2013-04-05 11:20:00,58.3,52.8,30.15,SW,230,5.0,5.0,82,0.00,,,0.09,Wunderground v.1.15,2013-04-05 18:20:00,
2013-04-05 11:25:00,58.6,52.8,30.14,SW,224,4.0,6.0,81,0.00,,,0.09,Wunderground v.1.15,2013-04-05 18:25:00,
2013-04-05 11:35:00,58.4,52.3,30.15,West,269,5.0,7.0,80,0.00,,,0.09,Wunderground v.1.15,2013-04-05 18:35:00,
2013-04-05 11:45:00,58.5,52.4,30.15,West,266,4.0,6.0,80,0.00,,,0.09,Wunderground v.1.15,2013-04-05 18:45:00,
2013-04-05 11:55:00,58.8,52.6,30.15,SW,232,5.0,10.0,80,0.00,,,0.09,Wunderground v.1.15,2013-04-05 18:55:00,
2013-04-05 12:00:00,59.0,52.1,30.15,WSW,248,5.0,5.0,78,0.00,,,0.09,Wunderground v.1.15,2013-04-05 19:00:00,
2013-04-05 12:05:00,59.2,52.7,30.15,WNW,286,5.0,5.0,79,0.00,,,0.09,Wunderground v.1.15,2013-04-05 19:05:00,
2013-04-05 12:15:00,59.5,52.6,30.16,WNW,297,4.0,5.0,78,0.00,,,0.09,Wunderground v.1.15,2013-04-05 19:15:00,
2013-04-05 12:25:00,59.6,52.4,30.16,SW,219,5.0,12.0,77,0.00,,,0.09,Wunderground v.1.15,2013-04-05 19:25:00,
2013-04-05 12:35:00,59.4,51.8,30.16,SW,220,7.0,8.0,76,0.00,,,0.09,Wunderground v.1.15,2013-04-05 19:35:00,
2013-04-05 12:40:00,59.2,51.6,30.16,WSW,237,6.0,7.0,76,0.00,,,0.09,Wunderground v.1.15,2013-04-05 19:40:00,
2013-04-05 12:50:00,58.1,52.0,30.16,SW,234,7.0,7.0,80,0.00,,,0.09,Wunderground v.1.15,2013-04-05 19:50:00,
2013-04-05 12:55:00,57.8,52.3,30.16,WSW,258,8.0,9.0,82,0.00,,,0.09,Wunderground v.1.15,2013-04-05 19:55:00,
2013-04-05 13:05:00,57.7,52.2,30.16,WSW,245,7.0,9.0,82,0.00,,,0.09,Wunderground v.1.15,2013-04-05 20:05:00,
2013-04-05 13:10:00,57.7,51.9,30.16,SW,231,7.0,14.0,81,0.00,,,0.09,Wunderground v.1.15,2013-04-05 20:10:00,
2013-04-05 13:15:00,57.6,51.8,30.15,West,263,7.0,14.0,81,0.00,,,0.09,Wunderground v.1.15,2013-04-05 20:15:00,
2013-04-05 13:20:00,57.8,52.0,30.15,WSW,238,5.0,9.0,81,0.00,,,0.09,Wunderground v.1.15,2013-04-05 20:20:00,
2013-04-05 13:25:00,57.8,51.7,30.14,SW,224,6.0,9.0,80,0.00,,,0.09,Wunderground v.1.15,2013-04-05 20:25:00,
2013-04-05 13:35:00,57.8,52.0,30.13,SW,214,5.0,8.0,81,0.00,,,0.09,Wunderground v.1.15,2013-04-05 20:35:00,
2013-04-05 13:40:00,57.8,52.0,30.13,WSW,246,4.0,4.0,81,0.00,,,0.09,Wunderground v.1.15,2013-04-05 20:40:00,
2013-04-05 13:45:00,58.0,52.5,30.12,SSW,192,4.0,8.0,82,0.00,,,0.09,Wunderground v.1.15,2013-04-05 20:45:00,
2013-04-05 13:50:00,58.3,52.5,30.12,WNW,288,3.0,3.0,81,0.00,,,0.09,Wunderground v.1.15,2013-04-05 20:50:00,
2013-04-05 13:55:00,58.5,52.7,30.12,West,281,3.0,8.0,81,0.00,,,0.09,Wunderground v.1.15,2013-04-05 20:55:00,
2013-04-05 14:05:00,58.6,52.4,30.12,SW,223,4.0,8.0,80,0.00,,,0.09,Wunderground v.1.15,2013-04-05 21:05:00,
2013-04-05 14:15:00,60.1,53.2,30.13,SW,224,5.0,8.0,78,0.00,,,0.09,Wunderground v.1.15,2013-04-05 21:15:00,
2013-04-05 14:20:00,60.8,52.8,30.13,SSW,203,7.0,7.0,75,0.00,,,0.09,Wunderground v.1.15,2013-04-05 21:20:00,
2013-04-05 14:30:00,60.8,52.8,30.13,SW,234,6.0,9.0,75,0.00,,,0.09,Wunderground v.1.15,2013-04-05 21:30:00,
2013-04-05 14:35:00,60.8,53.5,30.13,West,270,5.0,9.0,77,0.00,,,0.09,Wunderground v.1.15,2013-04-05 21:35:00,
2013-04-05 14:40:00,61.0,53.4,30.13,SW,221,6.0,6.0,76,0.00,,,0.09,Wunderground v.1.15,2013-04-05 21:40:00,
2013-04-05 14:50:00,61.1,52.4,30.13,WSW,255,5.0,8.0,73,0.00,,,0.09,Wunderground v.1.15,2013-04-05 21:50:00,
2013-04-05 14:55:00,61.1,52.7,30.13,SSW,209,5.0,8.0,74,0.00,,,0.09,Wunderground v.1.15,2013-04-05 21:55:00,
2013-04-05 15:05:00,60.9,52.6,30.12,SSW,205,4.0,8.0,74,0.00,,,0.09,Wunderground v.1.15,2013-04-05 22:05:00,
2013-04-05 15:10:00,61.0,52.3,30.12,SSW,197,4.0,8.0,73,0.00,,,0.09,Wunderground v.1.15,2013-04-05 22:10:00,
2013-04-05 15:20:00,60.7,52.0,30.11,SW,223,5.0,5.0,73,0.00,,,0.09,Wunderground v.1.15,2013-04-05 22:20:00,
2013-04-05 15:30:00,60.3,52.3,30.11,SSW,203,5.0,9.0,75,0.00,,,0.09,Wunderground v.1.15,2013-04-05 22:30:00,
2013-04-05 15:40:00,60.6,52.6,30.11,South,189,5.0,5.0,75,0.00,,,0.09,Wunderground v.1.15,2013-04-05 22:40:00,
2013-04-05 15:50:00,60.6,51.9,30.11,SW,231,6.0,6.0,73,0.00,,,0.09,Wunderground v.1.15,2013-04-05 22:50:00,
2013-04-05 15:55:00,60.4,51.7,30.12,WSW,240,7.0,7.0,73,0.00,,,0.09,Wunderground v.1.15,2013-04-05 22:55:00,
2013-04-05 16:05:00,61.6,52.9,30.12,SW,217,6.0,7.0,73,0.00,,,0.09,Wunderground v.1.15,2013-04-05 23:05:00,
2013-04-05 16:15:00,61.3,51.8,30.12,West,281,8.0,11.0,71,0.00,,,0.09,Wunderground v.1.15,2013-04-05 23:15:00,
2013-04-05 16:25:00,61.9,52.4,30.11,WNW,291,6.0,10.0,71,0.00,,,0.09,Wunderground v.1.15,2013-04-05 23:25:00,
2013-04-05 16:35:00,62.0,52.5,30.11,SW,229,5.0,7.0,71,0.00,,,0.09,Wunderground v.1.15,2013-04-05 23:35:00,
2013-04-05 16:45:00,63.0,52.7,30.10,SW,220,3.0,8.0,69,0.00,,,0.09,Wunderground v.1.15,2013-04-05 23:45:00,
2013-04-05 16:55:00,63.2,51.6,30.10,SSW,208,4.0,9.0,66,0.00,,,0.09,Wunderground v.1.15,2013-04-05 23:55:00,
2013-04-05 17:00:00,62.8,52.1,30.10,West,275,5.0,13.0,68,0.00,,,0.09,Wunderground v.1.15,2013-04-06 00:00:00,
2013-04-05 17:10:00,63.1,52.0,30.10,SW,218,5.0,13.0,67,0.00,,,0.09,Wunderground v.1.15,2013-04-06 00:10:00,
2013-04-05 17:20:00,62.9,51.8,30.11,West,264,6.0,13.0,67,0.00,,,0.09,Wunderground v.1.15,2013-04-06 00:20:00,
2013-04-05 17:25:00,62.9,51.4,30.11,WNW,300,6.0,13.0,66,0.00,,,0.09,Wunderground v.1.15,2013-04-06 00:25:00,
2013-04-05 17:30:00,63.1,52.4,30.11,WSW,251,6.0,13.0,68,0.00,,,0.09,Wunderground v.1.15,2013-04-06 00:30:00,
2013-04-05 17:40:00,62.0,51.7,30.11,West,278,6.0,6.0,69,0.00,,,0.09,Wunderground v.1.15,2013-04-06 00:40:00,
2013-04-05 17:50:00,62.0,52.5,30.11,SSW,200,5.0,13.0,71,0.00,,,0.09,Wunderground v.1.15,2013-04-06 00:50:00,
2013-04-05 18:00:00,61.4,51.9,30.11,SW,217,7.0,7.0,71,0.00,,,0.09,Wunderground v.1.15,2013-04-06 01:00:00,
2013-04-05 18:10:00,60.6,51.1,30.11,SW,218,6.0,13.0,71,0.00,,,0.09,Wunderground v.1.15,2013-04-06 01:10:00,
2013-04-05 18:15:00,59.9,50.8,30.10,SW,235,4.0,13.0,72,0.00,,,0.09,Wunderground v.1.15,2013-04-06 01:15:00,
2013-04-05 18:25:00,58.4,50.1,30.10,WSW,250,5.0,5.0,74,0.00,,,0.09,Wunderground v.1.15,2013-04-06 01:25:00,
2013-04-05 18:30:00,57.8,50.3,30.11,SW,224,5.0,13.0,76,0.00,,,0.09,Wunderground v.1.15,2013-04-06 01:30:00,
2013-04-05 18:40:00,57.1,50.6,30.12,West,263,6.0,13.0,79,0.00,,,0.09,Wunderground v.1.15,2013-04-06 01:40:00,
2013-04-05 18:51:00,56.4,50.0,30.12,WNW,287,7.0,7.0,79,0.00,,,0.09,Wunderground v.1.15,2013-04-06 01:51:00,
2013-04-05 19:00:00,56.1,50.3,30.11,WSW,237,6.0,13.0,81,0.00,,,0.09,Wunderground v.1.15,2013-04-06 02:00:00,
2013-04-05 19:05:00,56.0,50.6,30.10,West,279,4.0,13.0,82,0.00,,,0.09,Wunderground v.1.15,2013-04-06 02:05:00,
2013-04-05 19:15:00,55.9,50.8,30.10,West,277,2.0,2.0,83,0.00,,,0.09,Wunderground v.1.15,2013-04-06 02:15:00,
2013-04-05 19:25:00,55.7,50.6,30.10,SW,218,2.0,2.0,83,0.00,,,0.09,Wunderground v.1.15,2013-04-06 02:25:00,
2013-04-05 19:30:00,55.4,50.6,30.10,West,275,3.0,3.0,84,0.00,,,0.09,Wunderground v.1.15,2013-04-06 02:30:00,
2013-04-05 19:35:00,55.2,50.4,30.10,West,266,4.0,4.0,84,0.00,,,0.09,Wunderground v.1.15,2013-04-06 02:35:00,
2013-04-05 19:40:00,55.1,50.7,30.11,WSW,252,3.0,5.0,85,0.00,,,0.09,Wunderground v.1.15,2013-04-06 02:40:00,
2013-04-05 19:45:00,54.9,50.5,30.11,West,274,3.0,5.0,85,0.00,,,0.09,Wunderground v.1.15,2013-04-06 02:45:00,
2013-04-05 19:50:00,54.7,50.3,30.11,WSW,254,4.0,4.0,85,0.00,,,0.09,Wunderground v.1.15,2013-04-06 02:50:00,
2013-04-05 19:55:00,54.5,50.1,30.11,West,265,4.0,7.0,85,0.00,,,0.09,Wunderground v.1.15,2013-04-06 02:55:00,
2013-04-05 20:05:00,54.3,50.2,30.11,WSW,245,4.0,8.0,86,0.00,,,0.09,Wunderground v.1.15,2013-04-06 03:05:00,
2013-04-05 20:15:00,54.1,50.3,30.11,WSW,240,3.0,8.0,87,0.00,,,0.09,Wunderground v.1.15,2013-04-06 03:15:00,
2013-04-05 20:25:00,53.9,50.1,30.12,WSW,247,2.0,8.0,87,0.00,,,0.09,Wunderground v.1.15,2013-04-06 03:25:00,
2013-04-05 20:35:00,53.7,50.2,30.12,West,262,3.0,8.0,88,0.00,,,0.09,Wunderground v.1.15,2013-04-06 03:35:00,
2013-04-05 20:45:00,53.6,50.1,30.13,WSW,255,3.0,8.0,88,0.00,,,0.09,Wunderground v.1.15,2013-04-06 03:45:00,
2013-04-05 20:55:00,53.7,50.5,30.13,WSW,252,4.0,8.0,89,0.00,,,0.09,Wunderground v.1.15,2013-04-06 03:55:00,
2013-04-05 21:00:00,53.7,50.5,30.13,WSW,238,4.0,4.0,89,0.00,,,0.09,Wunderground v.1.15,2013-04-06 04:00:00,
2013-04-05 21:05:00,53.7,50.5,30.14,West,260,4.0,8.0,89,0.00,,,0.09,Wunderground v.1.15,2013-04-06 04:05:00,
2013-04-05 21:10:00,53.7,50.5,30.14,WSW,245,4.0,8.0,89,0.00,,,0.09,Wunderground v.1.15,2013-04-06 04:10:00,
2013-04-05 21:20:00,53.7,50.5,30.14,WSW,246,5.0,8.0,89,0.00,,,0.09,Wunderground v.1.15,2013-04-06 04:20:00,
2013-04-05 21:30:00,53.5,50.6,30.15,WSW,257,5.0,5.0,90,0.00,,,0.09,Wunderground v.1.15,2013-04-06 04:30:00,
2013-04-05 21:40:00,53.4,50.5,30.15,SW,225,4.0,4.0,90,0.00,,,0.09,Wunderground v.1.15,2013-04-06 04:40:00,
2013-04-05 21:45:00,53.3,50.4,30.14,West,262,4.0,8.0,90,0.00,,,0.09,Wunderground v.1.15,2013-04-06 04:45:00,
2013-04-05 21:50:00,53.3,50.4,30.15,SW,222,3.0,3.0,90,0.00,,,0.09,Wunderground v.1.15,2013-04-06 04:50:00,
2013-04-05 21:55:00,53.3,50.7,30.15,WSW,239,2.0,8.0,91,0.00,,,0.09,Wunderground v.1.15,2013-04-06 04:55:00,
2013-04-05 22:05:00,53.3,50.7,30.15,SW,221,2.0,8.0,91,0.00,,,0.09,Wunderground v.1.15,2013-04-06 05:05:00,
2013-04-05 22:15:00,53.2,50.6,30.16,WNW,283,4.0,6.0,91,0.00,,,0.09,Wunderground v.1.15,2013-04-06 05:15:00,
2013-04-05 22:25:00,53.2,50.6,30.15,NW,316,2.0,3.0,91,0.00,,,0.09,Wunderground v.1.15,2013-04-06 05:25:00,
2013-04-05 22:35:00,53.2,50.6,30.15,NW,321,1.0,1.0,91,0.00,,,0.09,Wunderground v.1.15,2013-04-06 05:35:00,
2013-04-05 22:45:00,53.1,50.5,30.15,SW,227,1.0,2.0,91,0.00,,,0.09,Wunderground v.1.15,2013-04-06 05:45:00,
2013-04-05 22:55:00,53.1,50.5,30.15,SW,231,0.0,1.0,91,0.00,,,0.09,Wunderground v.1.15,2013-04-06 05:55:00,
2013-04-05 23:05:00,53.0,50.4,30.15,WSW,243,1.0,6.0,91,0.00,,,0.09,Wunderground v.1.15,2013-04-06 06:05:00,
2013-04-05 23:10:00,53.0,50.4,30.15,West,266,0.0,6.0,91,0.00,,,0.09,Wunderground v.1.15,2013-04-06 06:10:00,
2013-04-05 23:20:00,53.0,50.4,30.15,SW,234,2.0,2.0,91,0.00,,,0.09,Wunderground v.1.15,2013-04-06 06:20:00,
2013-04-05 23:25:00,53.0,50.4,30.16,SW,233,2.0,3.0,91,0.00,,,0.09,Wunderground v.1.15,2013-04-06 06:25:00,
2013-04-05 23:35:00,52.9,50.3,30.15,WSW,243,3.0,6.0,91,0.00,,,0.09,Wunderground v.1.15,2013-04-06 06:35:00,
2013-04-05 23:45:00,52.8,50.2,30.15,SSW,193,2.0,6.0,91,0.00,,,0.09,Wunderground v.1.15,2013-04-06 06:45:00,
2013-04-05 23:55:00,52.8,50.2,30.15,West,260,3.0,6.0,91,0.00,,,0.09,Wunderground v.1.15,2013-04-06 06:55:00,